This is the latest recevied weather packets stored in our database for station/object N7TUG-8. If no packets are shown the sender has not sent any weather packets the latest 10 day(s).
| Time | Temp. | Humidity | Pressure | Rain* | Wind** | Luminosity | Snow |
|---|---|---|---|---|---|---|---|
| 1777517807 | 16.67° C | 68% | 1021.2 hPa | 0 mm | 0.45 m/s, 324° | - | - |
| 1777517691 | 17.22° C | 68% | 1021.2 hPa | 0 mm | 0.89 m/s, 234° | - | - |
| 1777516977 | 16.67° C | 68% | 1021.2 hPa | 0 mm | 0.89 m/s, 342° | - | - |
| 1777516866 | 16.67° C | 68% | 1021.2 hPa | 0 mm | 0.89 m/s, 342° | - | - |
| 1777516225 | 17.22° C | 66% | 1021.2 hPa | 0 mm | 0.89 m/s, 316° | - | - |
| 1777516066 | 17.22° C | 67% | 1021.3 hPa | 0 mm | 0.89 m/s, 314° | - | - |
| 1777515412 | 16.67° C | 69% | 1021.3 hPa | 0 mm | 0.89 m/s, 351° | - | - |
| 1777515251 | 16.11° C | 70% | 1021.4 hPa | 0 mm | 1.79 m/s, 346° | - | - |
| 1777514351 | 16.11° C | 69% | 1021.4 hPa | 0 mm | 1.79 m/s, 340° | - | - |
| 1777513847 | 16.67° C | 68% | 1021.4 hPa | 0 mm | 1.79 m/s, 333° | - | - |
| 1777513401 | 16.67° C | 68% | 1021.5 hPa | 0 mm | 1.79 m/s, 319° | - | - |
| 1777513102 | 16.67° C | 69% | 1021.6 hPa | 0 mm | 2.24 m/s, 319° | - | - |
| 1777512551 | 16.67° C | 69% | 1021.6 hPa | 0 mm | 2.24 m/s, 318° | - | - |
| 1777512367 | 16.67° C | 69% | 1021.6 hPa | 0 mm | 2.24 m/s, 318° | - | - |
| 1777511636 | 17.22° C | 65% | 1021.7 hPa | 0 mm | 1.34 m/s, 319° | - | - |
| 1777511547 | 17.22° C | 65% | 1021.7 hPa | 0 mm | 1.34 m/s, 319° | - | - |
| 1777510811 | 17.22° C | 68% | 1021.7 hPa | 0 mm | 1.79 m/s, 323° | - | - |
| 1777509896 | 16.11° C | 73% | 1021.9 hPa | 0 mm | 2.68 m/s, 324° | - | - |
| 1777508981 | 16.67° C | 69% | 1021.8 hPa | 0 mm | 2.68 m/s, 306° | - | - |
| 1777508036 | 17.22° C | 67% | 1021.9 hPa | 0 mm | 1.79 m/s, 321° | - | - |
| 1777507534 | 16.67° C | 69% | 1021.9 hPa | 0 mm | 2.24 m/s, 325° | - | - |
| 1777507357 | 16.67° C | 69% | 1021.9 hPa | 0 mm | 2.24 m/s, 325° | - | - |
| 1777507271 | 16.67° C | 69% | 1021.9 hPa | 0 mm | 2.24 m/s, 325° | - | - |
| 1777506496 | 16.67° C | 71% | 1022.1 hPa | 0 mm | 2.24 m/s, 336° | - | - |
| 1777505877 | 16.11° C | 70% | 1022.1 hPa | 0 mm | 2.68 m/s, 351° | - | - |
* Rain latest hour (hover to see other rain measurements)
** Current wind speed in m/s (hover to see current wind gust speed)